createdAt,value
2023-05-20T00:00:49.338Z,60.50
2023-05-20T00:03:17.668Z,62.00
2023-05-20T00:05:44.876Z,57.75
2023-05-20T00:08:11.837Z,56.25
2023-05-20T00:10:39.229Z,62.25
2023-05-20T00:13:06.706Z,59.75
2023-05-20T00:15:34.743Z,59.50
2023-05-20T00:18:03.077Z,62.25
2023-05-20T00:20:30.128Z,68.00
2023-05-20T00:22:57.036Z,57.00
2023-05-20T00:25:24.024Z,62.25
2023-05-20T00:27:50.996Z,66.00
2023-05-20T00:30:17.967Z,71.75
2023-05-20T00:32:44.998Z,72.25
2023-05-20T00:35:11.993Z,69.25
2023-05-20T00:37:38.875Z,69.75
2023-05-20T00:40:06.690Z,68.00
2023-05-20T00:42:33.723Z,62.50
2023-05-20T00:45:01.260Z,63.75
2023-05-20T00:47:32.623Z,66.75
2023-05-20T00:50:00.840Z,61.25
2023-05-20T00:52:31.366Z,63.25
2023-05-20T00:54:59.796Z,63.75
2023-05-20T00:57:27.263Z,59.50
2023-05-20T00:59:54.960Z,60.00
2023-05-20T01:02:22.090Z,56.25
2023-05-20T01:04:50.170Z,61.75
2023-05-20T01:07:18.937Z,63.25
2023-05-20T01:09:46.689Z,64.00
2023-05-20T01:12:17.403Z,65.50
2023-05-20T01:14:50.264Z,62.25
2023-05-20T01:17:21.169Z,58.25
2023-05-20T01:19:49.172Z,59.75
2023-05-20T01:22:16.422Z,58.00
2023-05-20T01:24:45.673Z,55.75
2023-05-20T01:27:13.673Z,56.75
2023-05-20T01:29:42.959Z,58.50
2023-05-20T01:32:15.520Z,57.50
2023-05-20T01:34:44.020Z,55.50
2023-05-20T01:37:13.243Z,59.00
2023-05-20T01:39:44.388Z,51.00
2023-05-20T01:42:12.307Z,55.50
2023-05-20T01:44:39.570Z,55.00
2023-05-20T01:47:07.764Z,58.50
2023-05-20T01:49:34.863Z,56.50
2023-05-20T01:52:01.755Z,56.75
2023-05-20T01:54:29.710Z,60.00
2023-05-20T01:56:56.876Z,55.50
2023-05-20T01:59:23.908Z,52.25
2023-05-20T02:01:51.226Z,59.25
2023-05-20T02:04:19.261Z,54.75
2023-05-20T02:06:46.393Z,58.00
2023-05-20T02:09:13.449Z,56.25
2023-05-20T02:11:40.657Z,57.25
2023-05-20T02:14:07.554Z,51.25
2023-05-20T02:16:34.536Z,53.25
2023-05-20T02:19:02.242Z,57.75
2023-05-20T02:21:29.247Z,58.75
2023-05-20T02:23:56.272Z,63.00
2023-05-20T02:26:23.690Z,58.25
2023-05-20T02:28:50.955Z,56.25
2023-05-20T02:31:18.231Z,58.00
2023-05-20T02:33:46.099Z,61.00
2023-05-20T02:36:13.214Z,62.25
2023-05-20T02:38:40.137Z,61.00
2023-05-20T02:41:07.209Z,65.00
2023-05-20T02:43:34.480Z,65.25
2023-05-20T02:46:01.818Z,62.75
2023-05-20T02:48:28.881Z,64.25
2023-05-20T02:50:56.013Z,60.25
2023-05-20T02:53:23.102Z,62.75
2023-05-20T02:55:50.145Z,61.00
2023-05-20T02:58:17.768Z,60.25
2023-05-20T03:00:45.022Z,61.25
2023-05-20T03:03:13.697Z,57.75
2023-05-20T03:05:42.606Z,62.50
2023-05-20T03:08:10.633Z,56.25
2023-05-20T03:10:38.548Z,63.25
2023-05-20T03:13:11.645Z,59.25
2023-05-20T03:15:42.698Z,67.75
2023-05-20T03:18:09.789Z,62.25
2023-05-20T03:20:38.387Z,61.25
2023-05-20T03:23:07.363Z,58.50
2023-05-20T03:25:37.762Z,61.00
2023-05-20T03:28:06.669Z,64.50
2023-05-20T03:30:35.949Z,65.50
2023-05-20T03:33:03.465Z,65.25
2023-05-20T03:35:30.682Z,59.25
2023-05-20T03:37:58.763Z,58.25
2023-05-20T03:40:26.248Z,56.50
2023-05-20T03:42:53.545Z,64.00
2023-05-20T03:45:21.852Z,64.75
2023-05-20T03:47:58.672Z,62.00
2023-05-20T03:50:25.914Z,58.50
2023-05-20T03:52:52.770Z,60.00
2023-05-20T03:55:22.617Z,58.25
2023-05-20T03:57:49.672Z,62.00
2023-05-20T04:00:17.091Z,62.75
2023-05-20T04:02:44.028Z,59.75
2023-05-20T04:05:14.010Z,60.25
2023-05-20T04:07:41.774Z,58.75
2023-05-20T04:10:09.863Z,61.00
2023-05-20T04:12:38.418Z,62.25
2023-05-20T04:15:06.854Z,63.75
2023-05-20T04:17:42.851Z,58.50
2023-05-20T04:20:11.466Z,51.25
2023-05-20T04:22:39.791Z,112.25
2023-05-20T04:25:07.247Z,58.75
2023-05-20T04:27:34.345Z,57.75
2023-05-20T04:30:02.655Z,61.25
2023-05-20T04:32:34.485Z,60.50
2023-05-20T04:35:02.357Z,54.50
2023-05-20T04:37:32.844Z,54.75
2023-05-20T04:39:59.803Z,56.25
2023-05-20T04:42:27.948Z,56.50
2023-05-20T04:44:54.828Z,57.25
2023-05-20T04:47:21.757Z,57.75
2023-05-20T04:49:50.377Z,63.25
2023-05-20T04:52:18.150Z,58.75
2023-05-20T04:54:45.155Z,52.25
2023-05-20T04:57:12.518Z,56.50
2023-05-20T04:59:39.456Z,49.25
2023-05-20T05:02:06.649Z,58.00
2023-05-20T05:04:33.772Z,49.50
2023-05-20T05:07:00.834Z,57.75
2023-05-20T05:09:27.853Z,57.25
2023-05-20T05:11:54.751Z,57.75
2023-05-20T05:14:22.345Z,61.00
2023-05-20T05:16:49.821Z,54.75
2023-05-20T05:19:16.828Z,56.50
2023-05-20T05:21:44.397Z,56.00
2023-05-20T05:24:11.448Z,47.33
2023-05-20T05:26:38.487Z,52.33
2023-05-20T05:29:05.473Z,62.67
2023-05-20T05:31:32.523Z,60.75
2023-05-20T05:33:59.480Z,57.33
2023-05-20T05:36:26.491Z,48.67
2023-05-20T05:38:54.069Z,57.00
2023-05-20T05:41:21.774Z,61.33
2023-05-20T05:43:49.116Z,62.67
2023-05-20T05:46:16.692Z,52.00
2023-05-20T05:48:48.884Z,56.00
2023-05-20T05:51:16.088Z,59.67
2023-05-20T05:53:43.165Z,54.00
2023-05-20T05:56:10.760Z,49.33
2023-05-20T05:58:38.706Z,59.00
2023-05-20T06:01:07.391Z,57.00
2023-05-20T06:03:34.525Z,44.00
2023-05-20T06:06:02.406Z,49.00
2023-05-20T06:08:29.793Z,48.67
2023-05-20T06:10:56.751Z,49.33
2023-05-20T06:13:23.768Z,48.33
2023-05-20T06:15:51.111Z,44.00
2023-05-20T06:18:18.058Z,53.67
2023-05-20T06:20:45.441Z,51.00
2023-05-20T06:23:12.623Z,41.75
2023-05-20T06:25:51.284Z,48.25
2023-05-20T06:28:19.308Z,46.50
2023-05-20T06:30:46.328Z,46.25
2023-05-20T06:33:13.417Z,45.25
2023-05-20T06:35:40.503Z,45.50
2023-05-20T06:38:07.414Z,35.25
2023-05-20T06:40:34.590Z,44.25
2023-05-20T06:43:01.748Z,37.25
2023-05-20T06:45:53.735Z,44.75
2023-05-20T06:48:28.593Z,42.50
2023-05-20T06:50:55.677Z,41.00
2023-05-20T06:53:22.859Z,38.00
2023-05-20T06:55:49.991Z,41.50
2023-05-20T06:58:16.981Z,41.50
2023-05-20T07:00:44.091Z,39.75
2023-05-20T07:03:11.802Z,38.75
2023-05-20T07:05:39.558Z,39.50
2023-05-20T07:08:08.569Z,38.00
2023-05-20T07:10:35.666Z,35.25
2023-05-20T07:13:03.739Z,35.75
2023-05-20T07:15:31.351Z,41.00
2023-05-20T07:17:59.495Z,39.50
2023-05-20T07:20:26.703Z,40.75
2023-05-20T07:22:54.310Z,35.00
2023-05-20T07:25:31.770Z,36.00
2023-05-20T07:28:00.516Z,40.75
2023-05-20T07:30:28.092Z,34.00
2023-05-20T07:33:11.428Z,36.25
2023-05-20T07:35:38.960Z,31.25
2023-05-20T07:38:06.063Z,37.25
2023-05-20T07:40:33.219Z,33.75
2023-05-20T07:43:00.584Z,34.50
2023-05-20T07:45:27.587Z,35.25
2023-05-20T07:47:54.600Z,32.75
2023-05-20T07:50:21.687Z,32.25
2023-05-20T07:55:23.124Z,35.75
2023-05-20T07:57:50.506Z,40.00
2023-05-20T08:00:19.534Z,37.00
2023-05-20T08:02:46.574Z,36.00
2023-05-20T08:05:18.186Z,36.75
2023-05-20T08:07:46.562Z,36.75
2023-05-20T08:10:15.201Z,33.50
2023-05-20T08:12:43.672Z,36.75
2023-05-20T08:15:11.834Z,39.25
2023-05-20T08:17:40.119Z,32.50
2023-05-20T08:20:12.789Z,38.00
2023-05-20T08:22:40.530Z,33.75
2023-05-20T08:25:09.076Z,41.50
2023-05-20T08:27:37.552Z,36.00
2023-05-20T08:30:08.344Z,31.50
2023-05-20T08:32:35.924Z,37.75
2023-05-20T08:35:04.024Z,36.25
2023-05-20T08:37:31.194Z,34.75
2023-05-20T08:39:58.237Z,36.00
2023-05-20T08:42:26.884Z,35.50
2023-05-20T08:44:58.313Z,35.75
2023-05-20T08:47:27.074Z,30.75
2023-05-20T08:49:54.029Z,31.50
2023-05-20T08:52:22.649Z,32.50
2023-05-20T08:54:52.149Z,30.50
2023-05-20T08:57:20.662Z,33.50
2023-05-20T08:59:47.633Z,36.25
2023-05-20T09:02:15.248Z,33.25
2023-05-20T09:04:42.434Z,30.00
2023-05-20T09:07:09.643Z,22.00
2023-05-20T09:09:36.804Z,26.25
2023-05-20T09:12:04.752Z,28.00
2023-05-20T09:14:32.081Z,35.50
2023-05-20T09:17:00.514Z,27.00
2023-05-20T09:19:27.566Z,29.50
2023-05-20T09:21:55.364Z,25.25
2023-05-20T09:24:26.963Z,29.25
2023-05-20T09:26:54.209Z,28.50
2023-05-20T09:29:21.886Z,30.50
2023-05-20T09:31:50.359Z,23.50
2023-05-20T09:34:17.800Z,19.25
2023-05-20T09:36:45.478Z,20.50
2023-05-20T09:39:17.385Z,25.25
2023-05-20T09:41:55.233Z,23.25
2023-05-20T09:44:23.606Z,23.25
2023-05-20T09:46:53.233Z,20.50
2023-05-20T09:49:21.687Z,23.25
2023-05-20T09:51:49.749Z,18.75
2023-05-20T09:54:19.759Z,21.50
2023-05-20T09:56:48.233Z,21.00
2023-05-20T09:59:21.785Z,19.75
2023-05-20T10:01:48.966Z,16.75
2023-05-20T10:04:18.248Z,15.75
2023-05-20T10:06:57.515Z,19.50
2023-05-20T10:09:49.372Z,16.25
2023-05-20T10:12:38.235Z,18.00
2023-05-20T10:15:20.744Z,22.25
2023-05-20T10:18:09.073Z,17.75
2023-05-20T10:20:50.063Z,18.00
2023-05-20T10:23:25.140Z,21.50
2023-05-20T10:25:54.420Z,15.75
2023-05-20T10:28:33.081Z,17.25
2023-05-20T10:31:01.082Z,18.00
2023-05-20T10:33:28.864Z,19.25
2023-05-20T10:36:00.267Z,14.75
2023-05-20T10:38:27.411Z,15.50
2023-05-20T10:40:54.260Z,21.25
2023-05-20T10:43:28.928Z,18.00
2023-05-20T10:45:57.842Z,19.25
2023-05-20T10:48:26.358Z,18.00
2023-05-20T10:50:58.574Z,17.25
2023-05-20T10:53:34.212Z,18.75
2023-05-20T10:56:01.808Z,16.50
2023-05-20T10:58:37.708Z,19.25
2023-05-20T11:01:05.063Z,19.00
2023-05-20T11:03:34.981Z,18.75
2023-05-20T11:06:02.133Z,16.75
2023-05-20T11:08:33.199Z,15.00
2023-05-20T11:11:00.163Z,16.00
2023-05-20T11:13:27.474Z,17.00
2023-05-20T11:15:55.613Z,16.00
2023-05-20T11:18:22.630Z,16.00
2023-05-20T11:20:49.859Z,20.75
2023-05-20T11:23:16.849Z,27.50
2023-05-20T11:25:43.841Z,22.50
2023-05-20T11:28:14.576Z,25.00
2023-05-20T11:30:43.364Z,18.50
2023-05-20T11:33:13.475Z,11.00
2023-05-20T11:35:49.933Z,12.75
2023-05-20T11:38:17.339Z,13.00
2023-05-20T11:40:52.074Z,12.00
2023-05-20T11:43:19.976Z,18.00
2023-05-20T11:45:59.910Z,16.75
2023-05-20T11:48:27.514Z,14.25
2023-05-20T11:50:57.114Z,16.00
2023-05-20T11:53:25.361Z,15.75
2023-05-20T11:55:57.726Z,14.75
2023-05-20T11:58:26.628Z,11.50
2023-05-20T12:01:01.864Z,13.75
2023-05-20T12:03:33.289Z,15.25
2023-05-20T12:06:03.723Z,13.50
2023-05-20T12:08:30.658Z,9.00
2023-05-20T12:10:57.758Z,16.50
2023-05-20T12:13:24.922Z,16.00
2023-05-20T12:15:51.871Z,14.50
2023-05-20T12:18:20.148Z,17.75
2023-05-20T12:20:47.005Z,10.25
2023-05-20T12:23:13.986Z,18.50
2023-05-20T12:25:41.020Z,13.75
2023-05-20T12:28:08.309Z,16.00
2023-05-20T12:30:35.596Z,16.00
2023-05-20T12:33:02.785Z,17.75
2023-05-20T12:35:41.537Z,13.25
2023-05-20T12:38:08.783Z,11.25
2023-05-20T12:40:36.851Z,18.75
2023-05-20T12:43:05.149Z,13.25
2023-05-20T12:45:32.001Z,15.25
2023-05-20T12:47:59.374Z,12.00
2023-05-20T12:50:27.342Z,15.75
2023-05-20T12:52:54.494Z,20.25
2023-05-20T12:55:21.540Z,17.50
2023-05-20T12:57:48.671Z,16.00
2023-05-20T13:00:16.236Z,22.50
2023-05-20T13:02:43.794Z,15.75
2023-05-20T13:05:11.692Z,17.25
2023-05-20T13:07:39.037Z,12.75
2023-05-20T13:10:07.628Z,14.75
2023-05-20T13:12:35.543Z,9.00
2023-05-20T13:15:03.311Z,14.50
2023-05-20T13:17:30.593Z,14.00
2023-05-20T13:19:57.545Z,10.25
2023-05-20T13:22:24.668Z,14.25
2023-05-20T13:24:51.698Z,13.00
2023-05-20T13:27:18.560Z,15.00
2023-05-20T13:29:46.122Z,12.25
2023-05-20T13:32:13.467Z,11.00
2023-05-20T13:34:40.583Z,12.00
2023-05-20T13:37:07.470Z,16.75
2023-05-20T13:39:34.729Z,5.75
2023-05-20T13:42:01.858Z,12.25
2023-05-20T13:44:29.377Z,8.25
2023-05-20T13:46:57.785Z,13.25
2023-05-20T13:49:25.726Z,10.25
2023-05-20T13:51:52.903Z,14.25
2023-05-20T13:54:21.298Z,15.75
2023-05-20T13:56:48.757Z,13.50
2023-05-20T13:59:15.916Z,14.00
2023-05-20T14:01:45.410Z,12.00
2023-05-20T14:04:13.375Z,17.25
2023-05-20T14:06:40.864Z,11.50
2023-05-20T14:09:11.023Z,13.75
2023-05-20T14:11:38.386Z,12.75
2023-05-20T14:14:05.413Z,10.25
2023-05-20T14:16:33.111Z,11.75
2023-05-20T14:19:00.517Z,14.25
2023-05-20T14:21:27.732Z,14.25
2023-05-20T14:23:54.689Z,11.75
2023-05-20T14:26:21.828Z,16.00
2023-05-20T14:28:49.203Z,16.25
2023-05-20T14:31:16.420Z,15.75
2023-05-20T14:33:43.373Z,16.00
2023-05-20T14:36:10.809Z,15.25
2023-05-20T14:38:37.751Z,16.00
2023-05-20T14:41:05.011Z,17.25
2023-05-20T14:43:32.322Z,15.25
2023-05-20T14:45:59.369Z,12.75
2023-05-20T14:48:26.537Z,13.75
2023-05-20T14:50:53.453Z,13.75
2023-05-20T14:53:20.522Z,15.00
2023-05-20T14:55:48.835Z,15.25
2023-05-20T14:58:15.855Z,13.75
2023-05-20T15:00:42.775Z,14.00
2023-05-20T15:03:09.845Z,12.75
2023-05-20T15:05:37.216Z,14.75
2023-05-20T15:08:04.387Z,13.25
2023-05-20T15:10:31.562Z,10.00
2023-05-20T15:12:58.520Z,17.25
2023-05-20T15:15:25.679Z,11.00
2023-05-20T15:17:52.660Z,12.75
2023-05-20T15:20:19.850Z,16.50
2023-05-20T15:22:48.287Z,10.00
2023-05-20T15:25:15.647Z,14.25
2023-05-20T15:27:42.676Z,18.50
2023-05-20T15:30:10.359Z,17.25
2023-05-20T15:32:37.528Z,14.75
2023-05-20T15:35:05.069Z,17.50
2023-05-20T15:37:31.967Z,13.25
2023-05-20T15:39:58.967Z,14.25
2023-05-20T15:42:25.861Z,12.25
2023-05-20T15:44:52.884Z,16.00
2023-05-20T15:47:19.915Z,14.25
2023-05-20T15:49:46.972Z,19.00
2023-05-20T15:52:14.227Z,14.25
2023-05-20T15:54:41.272Z,17.50
2023-05-20T15:57:08.967Z,17.75
2023-05-20T15:59:36.062Z,21.50
2023-05-20T16:02:03.023Z,21.25
2023-05-20T16:04:30.209Z,20.00
2023-05-20T16:06:57.310Z,19.50
2023-05-20T16:09:24.608Z,20.50
2023-05-20T16:11:51.546Z,16.00
2023-05-20T16:14:18.546Z,15.75
2023-05-20T16:16:45.684Z,17.25
2023-05-20T16:19:12.774Z,14.75
2023-05-20T16:21:39.831Z,15.00
2023-05-20T16:24:06.799Z,19.75
2023-05-20T16:26:33.798Z,13.25
2023-05-20T16:29:00.718Z,11.00
2023-05-20T16:31:27.703Z,17.00
2023-05-20T16:33:54.937Z,14.00
2023-05-20T16:36:22.237Z,14.75
2023-05-20T16:38:49.143Z,17.00
2023-05-20T16:41:16.403Z,15.00
2023-05-20T16:43:43.637Z,18.00
2023-05-20T16:46:12.580Z,16.50
2023-05-20T16:48:39.851Z,12.00
2023-05-20T16:51:06.913Z,17.75
2023-05-20T16:53:33.998Z,21.25
2023-05-20T16:56:00.970Z,22.00
2023-05-20T16:58:27.954Z,26.00
2023-05-20T17:00:55.229Z,25.33
2023-05-20T17:03:22.568Z,25.33
2023-05-20T17:05:49.526Z,27.00
2023-05-20T17:08:16.865Z,23.75
2023-05-20T17:10:44.111Z,28.67
2023-05-20T17:13:11.236Z,17.67
2023-05-20T17:15:38.217Z,23.33
2023-05-20T17:18:05.253Z,22.33
2023-05-20T17:20:33.058Z,34.33
2023-05-20T17:23:00.915Z,18.67
2023-05-20T17:25:27.888Z,24.00
2023-05-20T17:27:54.896Z,23.33
2023-05-20T17:30:22.101Z,25.33
2023-05-20T17:32:50.035Z,23.00
2023-05-20T17:35:20.411Z,26.67
2023-05-20T17:37:47.462Z,26.00
2023-05-20T17:40:14.500Z,19.00
2023-05-20T17:42:41.417Z,57.00
2023-05-20T17:45:08.856Z,51.67
2023-05-20T17:47:35.817Z,33.67
2023-05-20T17:50:03.166Z,41.33
2023-05-20T17:52:30.097Z,29.67
2023-05-20T17:54:57.145Z,21.33
2023-05-20T17:57:24.164Z,25.00
2023-05-20T17:59:51.447Z,28.00
2023-05-20T18:02:18.453Z,29.67
2023-05-20T18:04:45.684Z,25.33
2023-05-20T18:07:17.809Z,22.67
2023-05-20T18:09:44.845Z,20.67
2023-05-20T18:12:11.743Z,21.33
2023-05-20T18:14:39.240Z,23.67
2023-05-20T18:17:06.241Z,25.67
2023-05-20T18:19:33.981Z,33.33
2023-05-20T18:22:02.805Z,32.33
2023-05-20T18:24:29.985Z,53.33
2023-05-20T18:26:57.505Z,70.50
2023-05-20T18:29:26.870Z,63.50
2023-05-20T18:31:54.028Z,61.75
2023-05-20T18:34:21.401Z,63.50
2023-05-20T18:36:48.953Z,46.67
2023-05-20T18:39:20.360Z,54.00
2023-05-20T18:41:48.055Z,52.00
2023-05-20T18:44:16.377Z,42.33
2023-05-20T18:46:43.446Z,50.33
2023-05-20T18:49:13.501Z,50.00
2023-05-20T18:51:41.142Z,47.33
2023-05-20T18:54:08.375Z,49.00
2023-05-20T18:56:35.891Z,42.67
2023-05-20T18:59:02.981Z,38.00
2023-05-20T19:01:30.014Z,41.67
2023-05-20T19:03:57.175Z,41.00
2023-05-20T19:06:24.129Z,36.00
2023-05-20T19:08:51.218Z,50.00
2023-05-20T19:11:18.322Z,42.67
2023-05-20T19:13:45.488Z,40.00
2023-05-20T19:16:12.461Z,41.33
2023-05-20T19:18:39.701Z,47.67
2023-05-20T19:21:06.572Z,47.00
2023-05-20T19:23:33.688Z,46.25
2023-05-20T19:26:00.736Z,42.00
2023-05-20T19:28:27.872Z,47.50
2023-05-20T19:30:54.918Z,38.00
2023-05-20T19:33:22.005Z,37.33
2023-05-20T19:35:49.319Z,36.67
2023-05-20T19:38:16.490Z,37.67
2023-05-20T19:40:47.834Z,42.67
2023-05-20T19:43:14.995Z,36.00
2023-05-20T19:45:42.110Z,37.67
2023-05-20T19:48:09.329Z,39.00
2023-05-20T19:50:36.496Z,42.67
2023-05-20T19:53:06.471Z,47.75
2023-05-20T19:55:35.738Z,44.00
2023-05-20T19:58:03.182Z,45.33
2023-05-20T20:00:30.228Z,39.33
2023-05-20T20:02:57.781Z,39.67
2023-05-20T20:05:26.102Z,37.67
2023-05-20T20:07:53.286Z,42.33
2023-05-20T20:10:20.176Z,41.00
2023-05-20T20:12:47.266Z,43.67
2023-05-20T20:15:14.593Z,39.00
2023-05-20T20:17:45.995Z,38.00
2023-05-20T20:20:14.345Z,46.00
2023-05-20T20:22:42.146Z,46.00
2023-05-20T20:25:09.292Z,42.00
2023-05-20T20:27:36.238Z,43.67
2023-05-20T20:30:03.431Z,43.33
2023-05-20T20:32:30.421Z,40.00
2023-05-20T20:34:58.262Z,45.33
2023-05-20T20:37:26.909Z,38.00
2023-05-20T20:39:56.638Z,39.00
2023-05-20T20:42:23.587Z,36.67
2023-05-20T20:44:52.551Z,40.00
2023-05-20T20:47:19.552Z,41.33
2023-05-20T20:49:46.494Z,39.67
2023-05-20T20:52:13.440Z,42.33
2023-05-20T20:54:42.896Z,47.00
2023-05-20T20:57:10.193Z,49.75
2023-05-20T20:59:37.102Z,51.25
2023-05-20T21:02:04.503Z,44.00
2023-05-20T21:04:32.924Z,46.50
2023-05-20T21:07:02.160Z,42.00
2023-05-20T21:09:29.368Z,50.00
2023-05-20T21:11:57.331Z,41.25
2023-05-20T21:14:25.362Z,36.00
2023-05-20T21:16:52.494Z,38.33
2023-05-20T21:19:19.655Z,44.00
2023-05-20T21:21:46.779Z,38.00
2023-05-20T21:24:13.845Z,43.67
2023-05-20T21:26:40.712Z,40.00
2023-05-20T21:29:10.023Z,36.00
2023-05-20T21:31:37.002Z,38.67
2023-05-20T21:34:04.254Z,34.33
2023-05-20T21:36:32.409Z,40.00
2023-05-20T21:38:59.336Z,38.00
2023-05-20T21:41:27.344Z,36.33
2023-05-20T21:43:54.289Z,42.00
2023-05-20T21:46:21.335Z,41.33
2023-05-20T21:48:48.280Z,45.75
2023-05-20T21:51:15.330Z,47.00
2023-05-20T21:53:42.299Z,43.25
2023-05-20T21:56:09.258Z,47.00
2023-05-20T21:58:40.890Z,47.50
2023-05-20T22:01:09.746Z,45.25
2023-05-20T22:03:38.317Z,42.00
2023-05-20T22:06:06.215Z,41.00
2023-05-20T22:08:35.920Z,40.75
2023-05-20T22:11:07.419Z,36.00
2023-05-20T22:13:35.693Z,40.25
2023-05-20T22:16:04.929Z,65.00
2023-05-20T22:18:32.307Z,44.25
2023-05-20T22:20:59.469Z,65.75
2023-05-20T22:23:27.243Z,48.50
2023-05-20T22:25:58.259Z,51.25
2023-05-20T22:28:26.278Z,47.25
2023-05-20T22:30:53.295Z,54.25
2023-05-20T22:33:20.204Z,44.75
2023-05-20T22:35:47.174Z,42.75
2023-05-20T22:38:14.031Z,47.50
2023-05-20T22:40:41.232Z,47.75
2023-05-20T22:43:08.136Z,48.50
2023-05-20T22:45:35.362Z,36.00
2023-05-20T22:48:03.823Z,36.25
2023-05-20T22:50:30.978Z,51.75
2023-05-20T22:52:57.931Z,43.75
2023-05-20T22:55:25.020Z,47.00
2023-05-20T22:57:51.846Z,56.25
2023-05-20T23:00:18.903Z,37.75
2023-05-20T23:02:49.756Z,46.50
2023-05-20T23:05:17.390Z,47.50
2023-05-20T23:07:45.011Z,52.25
2023-05-20T23:10:12.101Z,44.25
2023-05-20T23:12:39.185Z,47.50
2023-05-20T23:15:06.934Z,39.75
2023-05-20T23:17:33.914Z,34.25
2023-05-20T23:20:01.053Z,36.25
2023-05-20T23:22:27.973Z,36.75
2023-05-20T23:24:54.966Z,41.75
2023-05-20T23:27:21.816Z,43.75
2023-05-20T23:29:48.862Z,40.75
2023-05-20T23:32:15.773Z,42.25
2023-05-20T23:34:43.599Z,35.25
2023-05-20T23:37:10.588Z,40.00
2023-05-20T23:39:37.529Z,41.00
2023-05-20T23:42:05.480Z,41.25
2023-05-20T23:44:32.418Z,44.50
2023-05-20T23:46:59.430Z,43.25
2023-05-20T23:49:27.242Z,42.75
2023-05-20T23:51:54.482Z,46.00
2023-05-20T23:54:22.864Z,51.75
2023-05-20T23:56:50.029Z,43.25
2023-05-20T23:59:17.082Z,48.25
